Time;durP1;ratioP1;P1;durP2;ratioP2;P2;SDS_P1;SDS_P2;PMS_P1;PMS_P2;Temp;Humidity;BMP_temperature;BMP_pressure;BME280_temperature;BME280_humidity;BME280_pressure;Samples;Min_cycle;Max_cycle;Signal;HPM_P1;HPM_P2
2023/03/05 00:01:43;;;;;;;7.60;1.63;;;3.40;99.90;;;;;;5032703;28;20186;-64
2023/03/05 00:04:14;;;;;;;6.63;2.10;;;3.40;99.90;;;;;;5031590;28;20053;-64
2023/03/05 00:06:39;;;;;;;4.55;1.58;;;3.40;99.90;;;;;;5039912;28;20055;-63
2023/03/05 00:09:05;;;;;;;9.05;2.38;;;3.30;99.90;;;;;;5043184;28;20033;-63
2023/03/05 00:11:32;;;;;;;9.27;1.45;;;3.30;99.90;;;;;;5037591;28;20051;-64
2023/03/05 00:13:59;;;;;;;5.55;1.27;;;3.30;99.90;;;;;;5040752;28;20033;-65
2023/03/05 00:16:25;;;;;;;5.15;1.92;;;3.20;99.90;;;;;;5037157;28;20095;-63
2023/03/05 00:18:52;;;;;;;7.15;1.80;;;3.20;99.90;;;;;;5042473;28;20086;-65
2023/03/05 00:21:24;;;;;;;4.18;1.30;;;3.20;99.90;;;;;;5049353;28;20826;-63
2023/03/05 00:23:50;;;;;;;2.55;1.00;;;3.20;99.90;;;;;;5039343;28;20041;-64
2023/03/05 00:26:18;;;;;;;2.97;1.05;;;3.10;99.90;;;;;;5045636;28;20033;-65
2023/03/05 00:28:46;;;;;;;4.15;1.02;;;3.20;99.90;;;;;;5048638;28;20040;-63
2023/03/05 00:31:11;;;;;;;5.00;1.25;;;3.10;99.90;;;;;;5032748;28;20045;-62
2023/03/05 00:33:37;;;;;;;6.00;1.17;;;3.10;99.90;;;;;;5037486;28;20041;-63
2023/03/05 00:36:05;;;;;;;4.85;1.27;;;3.10;99.90;;;;;;5040394;28;20044;-65
2023/03/05 00:38:31;;;;;;;5.35;1.75;;;3.00;99.90;;;;;;5036290;28;20041;-62
2023/03/05 00:40:57;;;;;;;2.38;1.00;;;3.10;99.90;;;;;;5035410;28;20384;-65
2023/03/05 00:43:22;;;;;;;4.50;1.45;;;3.00;99.90;;;;;;5037798;28;20041;-63
2023/03/05 00:45:48;;;;;;;3.78;2.08;;;3.00;99.90;;;;;;5034164;28;20052;-63
2023/03/05 00:48:13;;;;;;;5.07;1.50;;;3.00;99.90;;;;;;5034178;28;20045;-64
2023/03/05 00:50:39;;;;;;;7.65;1.50;;;3.00;99.90;;;;;;5034822;28;20045;-63
2023/03/05 00:53:05;;;;;;;5.47;1.10;;;3.00;99.90;;;;;;5036183;28;20128;-63
2023/03/05 00:55:30;;;;;;;5.53;1.50;;;3.00;99.90;;;;;;5035286;28;20513;-64
2023/03/05 00:57:56;;;;;;;5.18;1.50;;;3.00;99.90;;;;;;5035969;28;20041;-64
2023/03/05 01:00:21;;;;;;;4.38;1.17;;;3.00;99.90;;;;;;5045254;28;20082;-64
2023/03/05 01:02:47;;;;;;;7.28;1.33;;;3.10;99.90;;;;;;5035381;28;20047;-63
2023/03/05 01:05:13;;;;;;;6.28;1.40;;;3.10;99.90;;;;;;5040878;28;22000;-63
2023/03/05 01:07:39;;;;;;;6.30;1.50;;;3.10;99.90;;;;;;5034340;28;20040;-63
2023/03/05 01:10:06;;;;;;;4.25;1.00;;;3.10;99.90;;;;;;5042548;28;20049;-63
2023/03/05 01:12:32;;;;;;;3.30;1.45;;;3.10;99.90;;;;;;5037812;28;20029;-63
2023/03/05 01:14:57;;;;;;;6.70;1.20;;;3.10;99.90;;;;;;5046246;28;20102;-63
2023/03/05 01:17:23;;;;;;;5.28;1.05;;;3.10;99.90;;;;;;5030256;28;20036;-62
2023/03/05 01:19:49;;;;;;;3.08;0.90;;;3.10;99.90;;;;;;5036970;28;20041;-63
2023/03/05 01:22:14;;;;;;;4.35;1.05;;;3.10;99.90;;;;;;5035226;28;20363;-62
2023/03/05 01:24:40;;;;;;;3.65;1.48;;;3.10;99.90;;;;;;5046377;28;20079;-63
2023/03/05 01:27:05;;;;;;;4.95;1.10;;;3.10;99.90;;;;;;5045728;28;20072;-62
2023/03/05 01:29:31;;;;;;;4.18;1.50;;;3.10;99.90;;;;;;5042421;28;20037;-63
2023/03/05 01:31:56;;;;;;;6.75;1.10;;;3.10;99.90;;;;;;5030036;28;20120;-62
2023/03/05 01:34:22;;;;;;;5.38;1.17;;;3.10;99.90;;;;;;5044939;28;20394;-65
2023/03/05 01:36:50;;;;;;;5.07;1.00;;;3.10;99.90;;;;;;5034783;28;20084;-63
2023/03/05 01:39:16;;;;;;;6.80;1.00;;;3.10;99.90;;;;;;5033069;28;20129;-62
2023/03/05 01:41:42;;;;;;;6.78;1.20;;;3.10;99.90;;;;;;5034303;28;20124;-63
2023/03/05 01:44:21;;;;;;;2.92;0.85;;;3.10;99.90;;;;;;5038529;28;20094;-64
2023/03/05 01:46:47;;;;;;;5.17;1.10;;;3.10;99.90;;;;;;5036163;28;20040;-64
2023/03/05 01:49:21;;;;;;;5.90;1.05;;;3.00;99.90;;;;;;5040060;28;20279;-64
2023/03/05 01:51:53;;;;;;;3.92;0.95;;;3.00;99.90;;;;;;5034662;28;20114;-63
2023/03/05 01:54:21;;;;;;;3.63;1.10;;;3.00;99.90;;;;;;5037872;28;20033;-65
2023/03/05 01:56:49;;;;;;;4.78;1.08;;;3.00;99.90;;;;;;5038061;28;20048;-64
2023/03/05 01:59:15;;;;;;;4.80;1.52;;;3.00;99.90;;;;;;5033806;28;20401;-63
2023/03/05 02:01:44;;;;;;;6.75;1.20;;;2.90;99.90;;;;;;5032251;28;20363;-63
2023/03/05 02:04:15;;;;;;;6.45;1.73;;;2.90;99.90;;;;;;5033789;28;20539;-64
2023/03/05 02:06:42;;;;;;;3.05;1.00;;;2.80;99.90;;;;;;5051562;28;20056;-63
2023/03/05 02:09:08;;;;;;;9.32;1.80;;;2.80;99.90;;;;;;5050164;28;20032;-64
2023/03/05 02:11:35;;;;;;;5.80;1.30;;;2.70;99.90;;;;;;5052524;28;20048;-64
2023/03/05 02:14:02;;;;;;;4.93;1.20;;;2.70;99.90;;;;;;5045179;28;20120;-63
2023/03/05 02:16:34;;;;;;;3.30;1.23;;;2.60;99.90;;;;;;5052263;28;20032;-62
2023/03/05 02:19:02;;;;;;;4.82;1.25;;;2.50;99.90;;;;;;5032452;28;20041;-63
2023/03/05 02:21:39;;;;;;;8.50;1.45;;;2.50;99.90;;;;;;5030119;28;20390;-63
2023/03/05 02:24:05;;;;;;;4.60;1.52;;;2.50;99.90;;;;;;5040416;28;20511;-64
2023/03/05 02:26:31;;;;;;;5.90;1.20;;;2.40;99.90;;;;;;5034491;28;20032;-63
2023/03/05 02:29:00;;;;;;;5.70;1.20;;;2.30;99.90;;;;;;5039596;28;20048;-62
2023/03/05 02:31:26;;;;;;;2.90;1.10;;;2.20;99.90;;;;;;5050777;28;20035;-63
2023/03/05 02:33:54;;;;;;;2.92;1.33;;;2.20;99.90;;;;;;5035980;28;20041;-63
2023/03/05 02:36:20;;;;;;;5.18;1.98;;;2.20;99.90;;;;;;5034844;28;20124;-64
2023/03/05 02:38:46;;;;;;;4.75;1.10;;;2.10;99.90;;;;;;5038705;28;20124;-62
2023/03/05 02:41:13;;;;;;;4.18;1.30;;;2.10;99.90;;;;;;5036595;28;20061;-63
2023/03/05 02:43:39;;;;;;;4.20;1.33;;;2.10;99.90;;;;;;5038381;28;20028;-63
2023/03/05 02:46:05;;;;;;;3.80;1.25;;;2.00;99.90;;;;;;5036551;28;20040;-64
2023/03/05 02:48:31;;;;;;;2.47;1.17;;;2.00;99.90;;;;;;5037105;28;20035;-63
2023/03/05 02:50:57;;;;;;;4.78;1.10;;;1.90;99.90;;;;;;5038308;28;20033;-64
2023/03/05 02:53:25;;;;;;;9.48;1.50;;;1.90;99.90;;;;;;5037513;28;20477;-64
2023/03/05 02:55:51;;;;;;;5.88;1.23;;;2.00;99.90;;;;;;5042780;28;20465;-64
2023/03/05 02:58:17;;;;;;;5.57;1.20;;;2.00;99.90;;;;;;5029298;28;20044;-64
2023/03/05 03:00:43;;;;;;;2.80;1.27;;;2.00;99.90;;;;;;5033082;28;20101;-62
2023/03/05 03:03:09;;;;;;;8.48;1.58;;;2.00;99.90;;;;;;5039910;28;20127;-63
2023/03/05 03:05:35;;;;;;;4.82;1.38;;;2.10;99.90;;;;;;5046879;28;20033;-64
2023/03/05 03:08:01;;;;;;;7.50;1.50;;;2.20;99.90;;;;;;5037963;28;20376;-63
2023/03/05 03:10:27;;;;;;;8.50;1.98;;;2.20;99.90;;;;;;5038433;28;20032;-64
2023/03/05 03:12:53;;;;;;;8.68;1.65;;;2.20;99.90;;;;;;5036631;28;20087;-62
2023/03/05 03:15:18;;;;;;;4.78;1.48;;;2.30;99.90;;;;;;5035190;28;20052;-63
2023/03/05 03:17:44;;;;;;;4.28;1.30;;;2.30;99.90;;;;;;5044208;28;20064;-62
2023/03/05 03:20:14;;;;;;;5.65;1.38;;;2.30;99.90;;;;;;5045003;28;20033;-63
2023/03/05 03:22:40;;;;;;;4.97;1.45;;;2.40;99.90;;;;;;5035156;28;20052;-62
2023/03/05 03:25:07;;;;;;;6.88;1.45;;;2.40;99.90;;;;;;5040099;28;20048;-63
2023/03/05 03:27:33;;;;;;;7.53;1.90;;;2.40;99.90;;;;;;5036465;28;20087;-62
2023/03/05 03:30:01;;;;;;;6.88;1.45;;;2.40;99.90;;;;;;5045452;28;20660;-63
2023/03/05 03:32:28;;;;;;;7.25;1.60;;;2.50;99.90;;;;;;5046283;28;20040;-63
2023/03/05 03:34:53;;;;;;;6.50;2.33;;;2.50;99.90;;;;;;5039420;28;20025;-62
2023/03/05 03:37:19;;;;;;;5.93;1.38;;;2.50;99.90;;;;;;5030727;28;22576;-64
2023/03/05 03:39:45;;;;;;;7.07;1.58;;;2.50;99.90;;;;;;5050802;28;20033;-64
2023/03/05 03:42:10;;;;;;;6.57;1.67;;;2.50;99.90;;;;;;5044703;28;20044;-62
2023/03/05 03:44:36;;;;;;;8.93;1.23;;;2.50;99.90;;;;;;5039891;28;20084;-63
2023/03/05 03:47:01;;;;;;;5.93;1.58;;;2.50;99.90;;;;;;5038561;28;20469;-63
2023/03/05 03:49:27;;;;;;;4.80;1.38;;;2.50;99.90;;;;;;5032550;28;20041;-62
2023/03/05 03:51:54;;;;;;;3.92;1.25;;;2.40;99.90;;;;;;5031371;28;20038;-63
2023/03/05 03:54:21;;;;;;;6.15;1.38;;;2.40;99.90;;;;;;5031595;28;20099;-63
2023/03/05 03:56:46;;;;;;;7.95;1.80;;;2.40;99.90;;;;;;5047030;28;20044;-63
2023/03/05 03:59:12;;;;;;;4.30;1.67;;;2.40;99.90;;;;;;5036237;28;20111;-63
2023/03/05 04:01:39;;;;;;;3.83;1.50;;;2.40;99.90;;;;;;5038320;28;20094;-64
2023/03/05 04:04:05;;;;;;;6.40;1.90;;;2.30;99.90;;;;;;5043998;28;20033;-63
2023/03/05 04:06:31;;;;;;;5.88;1.55;;;2.30;99.90;;;;;;5048653;28;20041;-63
2023/03/05 04:08:56;;;;;;;5.05;1.10;;;2.20;99.90;;;;;;5038974;28;20099;-62
2023/03/05 04:11:22;;;;;;;4.53;1.33;;;2.20;99.90;;;;;;5046655;28;20045;-63
2023/03/05 04:13:49;;;;;;;4.65;1.30;;;2.20;99.90;;;;;;5050902;28;20119;-62
2023/03/05 04:16:15;;;;;;;5.65;1.20;;;2.20;99.90;;;;;;5046531;28;20029;-63
2023/03/05 04:18:41;;;;;;;7.20;1.45;;;2.10;99.90;;;;;;5032058;28;20044;-63
2023/03/05 04:21:07;;;;;;;4.47;1.20;;;2.10;99.90;;;;;;5044278;28;20041;-63
2023/03/05 04:23:33;;;;;;;3.92;1.10;;;2.10;99.90;;;;;;5040765;28;20535;-63
2023/03/05 04:25:59;;;;;;;4.00;1.15;;;2.00;99.90;;;;;;5030965;28;20045;-64
2023/03/05 04:28:24;;;;;;;5.35;1.17;;;2.00;99.90;;;;;;5045293;28;20041;-62
2023/03/05 04:30:50;;;;;;;6.10;1.15;;;2.00;99.90;;;;;;5048389;28;20416;-64
2023/03/05 04:33:16;;;;;;;5.82;1.15;;;2.00;99.90;;;;;;5040530;28;20527;-62
2023/03/05 04:35:42;;;;;;;5.80;1.90;;;2.00;99.90;;;;;;5030419;28;20045;-62
2023/03/05 04:38:08;;;;;;;7.68;1.20;;;2.00;99.90;;;;;;5042927;28;20037;-62
2023/03/05 04:40:35;;;;;;;6.28;1.20;;;2.10;99.90;;;;;;5042873;28;20393;-62
2023/03/05 04:43:00;;;;;;;10.00;1.55;;;2.10;99.90;;;;;;5050702;28;20056;-62
2023/03/05 04:45:26;;;;;;;5.22;1.58;;;2.20;99.90;;;;;;5045501;28;20037;-65
2023/03/05 04:47:52;;;;;;;1.70;1.02;;;2.20;99.90;;;;;;5045823;28;20128;-64
2023/03/05 04:50:17;;;;;;;8.05;2.47;;;2.20;99.90;;;;;;5034684;28;20073;-64
2023/03/05 04:52:44;;;;;;;4.68;1.27;;;2.20;99.90;;;;;;5029747;28;20080;-63
2023/03/05 04:55:11;;;;;;;6.07;1.10;;;2.20;99.90;;;;;;5030220;28;20041;-64
2023/03/05 04:57:37;;;;;;;4.35;1.20;;;2.20;99.90;;;;;;5031112;28;20175;-63
2023/03/05 05:00:05;;;;;;;2.90;1.30;;;2.20;99.90;;;;;;5033676;28;20144;-63
2023/03/05 05:02:31;;;;;;;5.70;1.30;;;2.20;99.90;;;;;;5043479;28;20366;-62
2023/03/05 05:04:57;;;;;;;4.80;1.08;;;2.10;99.90;;;;;;5048688;28;20041;-64
2023/03/05 05:07:23;;;;;;;5.75;1.27;;;2.00;99.90;;;;;;5039617;28;20393;-63
2023/03/05 05:09:48;;;;;;;5.28;1.10;;;2.00;99.90;;;;;;5033740;28;20377;-63
2023/03/05 05:12:14;;;;;;;3.50;1.20;;;2.00;99.90;;;;;;5038609;28;20033;-62
2023/03/05 05:14:40;;;;;;;7.18;1.17;;;2.00;99.90;;;;;;5048159;28;20068;-64
2023/03/05 05:17:05;;;;;;;6.95;1.45;;;2.00;99.90;;;;;;5032620;28;20041;-64
2023/03/05 05:19:32;;;;;;;5.38;1.35;;;2.00;99.90;;;;;;5041219;28;20040;-63
2023/03/05 05:21:58;;;;;;;3.28;1.25;;;2.00;99.90;;;;;;5037333;28;20049;-63
2023/03/05 05:24:23;;;;;;;4.95;1.40;;;2.00;99.90;;;;;;5035611;28;20037;-63
2023/03/05 05:26:50;;;;;;;3.60;1.10;;;2.00;99.90;;;;;;5045680;28;20053;-63
2023/03/05 05:29:15;;;;;;;3.17;1.60;;;2.00;99.90;;;;;;5038969;28;20033;-63
2023/03/05 05:31:41;;;;;;;2.35;1.35;;;2.00;99.90;;;;;;5041984;28;20049;-62
2023/03/05 05:34:06;;;;;;;4.32;1.52;;;2.00;99.90;;;;;;5040400;28;20033;-63
2023/03/05 05:36:32;;;;;;;6.85;2.47;;;2.00;99.90;;;;;;5045576;28;20120;-63
2023/03/05 05:38:58;;;;;;;4.53;1.90;;;2.10;99.90;;;;;;5032415;28;20038;-63
2023/03/05 05:41:23;;;;;;;3.90;1.70;;;2.10;99.90;;;;;;5040479;28;20037;-64
2023/03/05 05:43:49;;;;;;;16.63;2.88;;;2.00;99.90;;;;;;5034795;28;20053;-64
2023/03/05 05:46:17;;;;;;;2.75;1.20;;;2.00;99.90;;;;;;5035549;28;20052;-63
2023/03/05 05:48:43;;;;;;;3.80;1.52;;;2.00;99.90;;;;;;5040600;28;20029;-62
2023/03/05 05:51:12;;;;;;;6.22;1.55;;;2.10;99.90;;;;;;5048236;28;20416;-63
2023/03/05 05:53:38;;;;;;;4.10;1.55;;;2.10;99.90;;;;;;5041318;28;20496;-63
2023/03/05 05:56:05;;;;;;;3.00;1.23;;;2.10;99.90;;;;;;5045536;28;20033;-64
2023/03/05 05:58:30;;;;;;;2.58;1.00;;;2.20;99.90;;;;;;5039166;28;20038;-64
2023/03/05 06:00:56;;;;;;;5.45;1.15;;;2.20;99.90;;;;;;5035215;28;20045;-63
2023/03/05 06:03:22;;;;;;;2.38;1.00;;;2.20;99.90;;;;;;5051332;28;20037;-64
2023/03/05 06:05:48;;;;;;;3.03;1.10;;;2.20;99.90;;;;;;5050650;28;20046;-64
2023/03/05 06:08:13;;;;;;;4.18;2.45;;;2.20;99.90;;;;;;5043123;28;20079;-64
2023/03/05 06:10:39;;;;;;;2.33;1.20;;;2.20;99.90;;;;;;5041024;28;20099;-65
2023/03/05 06:13:04;;;;;;;3.65;1.67;;;2.20;99.90;;;;;;5052384;28;20095;-64
2023/03/05 06:15:30;;;;;;;2.05;0.90;;;2.10;99.90;;;;;;5045290;28;20516;-63
2023/03/05 06:17:58;;;;;;;4.65;0.88;;;2.10;99.90;;;;;;5046182;28;20470;-62
2023/03/05 06:20:24;;;;;;;1.88;0.80;;;2.10;99.90;;;;;;5052288;28;20556;-63
2023/03/05 06:22:49;;;;;;;3.55;1.00;;;2.10;99.90;;;;;;5052873;28;20060;-63
2023/03/05 06:25:15;;;;;;;5.95;2.75;;;2.00;99.90;;;;;;5038657;28;20107;-63
2023/03/05 06:27:40;;;;;;;9.48;5.93;;;2.00;99.90;;;;;;5032455;28;20128;-62
2023/03/05 06:30:07;;;;;;;8.70;4.22;;;1.90;99.90;;;;;;5044023;28;20041;-63
2023/03/05 06:32:32;;;;;;;5.50;4.03;;;1.90;99.90;;;;;;5048945;28;20041;-63
2023/03/05 06:34:58;;;;;;;5.28;2.67;;;1.90;99.90;;;;;;5049564;28;20033;-63
2023/03/05 06:37:23;;;;;;;3.67;1.58;;;1.90;99.90;;;;;;5048756;28;20524;-63
2023/03/05 06:39:49;;;;;;;1.88;1.20;;;1.80;99.90;;;;;;5047956;28;20067;-65
2023/03/05 06:42:16;;;;;;;5.00;1.08;;;1.80;99.90;;;;;;5041860;28;20381;-63
2023/03/05 06:44:42;;;;;;;4.45;0.88;;;1.90;99.90;;;;;;5032425;28;20048;-63
2023/03/05 06:47:09;;;;;;;2.00;0.85;;;1.90;99.90;;;;;;5038947;28;20037;-64
2023/03/05 06:49:35;;;;;;;3.58;1.10;;;1.90;99.90;;;;;;5053962;28;20037;-64
2023/03/05 06:52:02;;;;;;;3.17;1.17;;;2.00;99.90;;;;;;5048373;28;20040;-63
2023/03/05 06:54:27;;;;;;;2.40;0.88;;;2.00;99.90;;;;;;5037573;28;20041;-63
2023/03/05 06:56:53;;;;;;;4.18;0.90;;;2.00;99.90;;;;;;5043098;28;20041;-62
2023/03/05 06:59:20;;;;;;;3.03;1.17;;;2.10;99.90;;;;;;5034746;28;20441;-63
2023/03/05 07:01:46;;;;;;;2.85;1.02;;;2.10;99.90;;;;;;5037158;28;20053;-65
2023/03/05 07:04:12;;;;;;;4.97;1.20;;;2.10;99.90;;;;;;5046856;28;20040;-63
2023/03/05 07:06:39;;;;;;;3.42;1.10;;;2.10;99.90;;;;;;5032378;28;20057;-62
2023/03/05 07:09:07;;;;;;;2.33;1.05;;;2.20;99.90;;;;;;5036045;28;20056;-63
2023/03/05 07:11:33;;;;;;;4.45;1.00;;;2.20;99.90;;;;;;5036899;28;20044;-63
2023/03/05 07:13:59;;;;;;;6.35;1.00;;;2.20;99.90;;;;;;5037423;28;20037;-63
2023/03/05 07:16:26;;;;;;;2.22;1.10;;;2.20;99.90;;;;;;5032006;28;20081;-63
2023/03/05 07:18:53;;;;;;;5.18;1.38;;;2.30;99.90;;;;;;5039046;28;20454;-63
2023/03/05 07:21:31;;;;;;;4.78;1.20;;;2.30;99.90;;;;;;5040414;28;20037;-62
2023/03/05 07:23:58;;;;;;;3.63;1.00;;;2.40;99.90;;;;;;5037935;28;20128;-62
2023/03/05 07:26:25;;;;;;;3.80;0.85;;;2.40;99.90;;;;;;5046728;28;20064;-63
2023/03/05 07:28:50;;;;;;;5.05;2.25;;;2.50;99.90;;;;;;5033247;28;20033;-63
2023/03/05 07:31:19;;;;;;;5.65;2.30;;;2.60;99.90;;;;;;5036156;28;20029;-63
2023/03/05 07:33:45;;;;;;;5.63;1.30;;;2.70;99.90;;;;;;5042306;28;20378;-63
2023/03/05 07:36:12;;;;;;;4.25;1.23;;;2.70;99.90;;;;;;5032203;28;20489;-63
2023/03/05 07:38:38;;;;;;;5.50;1.30;;;2.80;99.90;;;;;;5048209;28;20381;-63
2023/03/05 07:41:06;;;;;;;7.28;1.42;;;2.90;99.90;;;;;;5046513;28;20037;-63
2023/03/05 07:43:32;;;;;;;6.50;1.52;;;3.00;99.90;;;;;;5048372;28;20033;-63
2023/03/05 07:45:58;;;;;;;4.20;1.17;;;3.10;99.90;;;;;;5036983;28;20097;-63
2023/03/05 07:48:24;;;;;;;4.55;0.95;;;3.30;99.90;;;;;;5044831;28;20033;-63
2023/03/05 07:50:49;;;;;;;5.38;1.25;;;3.30;99.90;;;;;;5031701;28;20041;-64
2023/03/05 07:53:15;;;;;;;5.50;0.80;;;3.50;99.90;;;;;;5033937;28;20044;-64
2023/03/05 07:55:45;;;;;;;2.63;0.90;;;3.70;99.90;;;;;;5038301;28;20049;-63
2023/03/05 07:58:11;;;;;;;2.85;1.10;;;3.80;99.90;;;;;;5037410;28;20041;-63
2023/03/05 08:00:37;;;;;;;4.90;1.02;;;3.90;99.90;;;;;;5035050;28;20049;-64
2023/03/05 08:03:03;;;;;;;4.97;1.25;;;4.10;99.90;;;;;;5031542;28;20091;-63
2023/03/05 08:05:28;;;;;;;7.68;1.40;;;4.20;99.90;;;;;;5032482;28;20034;-64
2023/03/05 08:07:54;;;;;;;3.97;1.20;;;4.30;99.90;;;;;;5046741;28;20044;-63
2023/03/05 08:10:19;;;;;;;3.55;0.90;;;4.30;99.90;;;;;;5039134;28;20049;-63
2023/03/05 08:12:45;;;;;;;4.93;1.10;;;4.30;99.90;;;;;;5034708;28;20411;-63
2023/03/05 08:15:11;;;;;;;6.10;1.10;;;4.40;99.90;;;;;;5047532;28;20552;-64
2023/03/05 08:17:36;;;;;;;8.18;1.10;;;4.40;99.90;;;;;;5043056;28;20633;-64
2023/03/05 08:20:04;;;;;;;4.72;0.93;;;4.40;99.90;;;;;;5038060;28;20051;-62
2023/03/05 08:22:33;;;;;;;6.60;1.23;;;4.40;99.90;;;;;;5036013;28;20044;-63
2023/03/05 08:24:59;;;;;;;5.18;1.67;;;4.50;99.90;;;;;;5031179;28;20046;-63
2023/03/05 08:27:25;;;;;;;8.40;1.55;;;4.50;99.90;;;;;;5017954;28;20476;-64
2023/03/05 08:29:51;;;;;;;5.90;1.10;;;4.50;99.90;;;;;;5011539;28;20124;-65
2023/03/05 08:32:16;;;;;;;4.72;1.10;;;4.50;99.90;;;;;;5012397;28;22910;-64
2023/03/05 08:34:42;;;;;;;3.08;0.95;;;4.60;99.90;;;;;;5042680;28;20512;-63
2023/03/05 08:37:08;;;;;;;8.25;1.30;;;4.70;99.90;;;;;;5043386;28;20044;-64
2023/03/05 08:39:35;;;;;;;5.85;1.00;;;4.80;99.90;;;;;;5035271;28;20120;-63
2023/03/05 08:42:00;;;;;;;4.25;1.13;;;4.90;99.90;;;;;;5042122;28;20380;-63
2023/03/05 08:44:26;;;;;;;4.70;1.13;;;5.00;99.90;;;;;;5051370;28;20045;-62
2023/03/05 08:46:52;;;;;;;5.20;1.23;;;5.10;99.90;;;;;;5038955;28;20068;-63
2023/03/05 08:49:17;;;;;;;5.10;1.10;;;5.10;99.90;;;;;;5039779;28;20041;-63
2023/03/05 08:51:43;;;;;;;6.88;1.33;;;5.20;99.90;;;;;;5042964;28;20069;-63
2023/03/05 08:54:09;;;;;;;3.83;1.02;;;5.20;99.90;;;;;;5050816;28;20044;-64
2023/03/05 08:56:35;;;;;;;6.32;1.40;;;5.20;99.90;;;;;;5048737;28;20045;-63
2023/03/05 08:59:02;;;;;;;3.78;1.17;;;5.10;99.90;;;;;;5042444;28;20088;-63
2023/03/05 09:01:30;;;;;;;8.02;1.05;;;5.00;99.90;;;;;;5035633;28;20081;-63
2023/03/05 09:03:56;;;;;;;4.65;1.27;;;5.10;99.90;;;;;;5038885;28;20053;-64
2023/03/05 09:06:22;;;;;;;3.63;1.00;;;5.10;99.90;;;;;;5032316;28;20111;-63
2023/03/05 09:08:47;;;;;;;7.32;1.20;;;5.20;99.90;;;;;;5033563;28;20041;-63
2023/03/05 09:11:15;;;;;;;6.10;1.15;;;5.30;99.90;;;;;;5038173;28;20091;-63
2023/03/05 09:13:40;;;;;;;6.03;1.13;;;5.50;99.90;;;;;;5044670;28;20044;-63
2023/03/05 09:16:10;;;;;;;4.85;1.40;;;5.70;99.90;;;;;;5045829;28;20033;-63
2023/03/05 09:18:35;;;;;;;7.65;1.30;;;5.70;99.90;;;;;;5048688;28;20045;-63
2023/03/05 09:21:10;;;;;;;4.55;2.03;;;5.80;99.90;;;;;;5045469;28;20038;-64
2023/03/05 09:23:36;;;;;;;5.78;0.98;;;5.90;99.90;;;;;;5051917;28;20040;-63
2023/03/05 09:26:05;;;;;;;4.45;1.25;;;6.00;99.90;;;;;;5035335;28;20043;-63
2023/03/05 09:28:31;;;;;;;12.27;1.40;;;6.00;99.90;;;;;;5033202;28;20075;-63
2023/03/05 09:30:56;;;;;;;4.85;1.00;;;6.10;99.90;;;;;;5036454;28;20096;-63
2023/03/05 09:33:22;;;;;;;4.43;0.90;;;6.30;99.90;;;;;;5030547;28;20452;-64
2023/03/05 09:35:47;;;;;;;4.22;0.80;;;6.50;99.90;;;;;;5043609;28;20489;-63
2023/03/05 09:38:13;;;;;;;5.13;0.85;;;6.70;99.90;;;;;;5044313;28;20060;-63
2023/03/05 09:40:50;;;;;;;3.15;1.63;;;6.80;99.90;;;;;;5047988;28;20042;-63
2023/03/05 09:43:33;;;;;;;4.88;0.88;;;6.80;99.90;;;;;;5050109;28;20120;-63
2023/03/05 09:46:16;;;;;;;2.13;0.90;;;6.70;99.90;;;;;;5037911;28;20402;-64
2023/03/05 09:49:09;;;;;;;3.72;0.95;;;6.80;99.90;;;;;;5043579;28;20462;-63
2023/03/05 09:51:39;;;;;;;7.90;1.00;;;7.00;99.90;;;;;;5044564;28;20033;-65
2023/03/05 09:54:20;;;;;;;1.95;0.77;;;7.10;99.90;;;;;;5033046;28;20505;-64
2023/03/05 09:56:50;;;;;;;4.75;0.90;;;7.30;99.90;;;;;;5046872;28;20044;-65
2023/03/05 09:59:30;;;;;;;7.30;1.05;;;7.40;99.90;;;;;;5047612;28;20060;-63
2023/03/05 10:02:03;;;;;;;5.82;1.90;;;7.60;99.90;;;;;;5042569;28;20076;-64
2023/03/05 10:04:44;;;;;;;1.88;0.88;;;7.70;99.90;;;;;;5038930;28;20061;-64
2023/03/05 10:07:18;;;;;;;4.03;0.70;;;7.60;99.90;;;;;;5033192;28;20096;-65
2023/03/05 10:10:04;;;;;;;4.72;0.80;;;7.70;99.90;;;;;;5046134;28;20103;-63
2023/03/05 10:12:41;;;;;;;6.38;1.10;;;7.60;99.90;;;;;;5043201;28;20040;-63
2023/03/05 10:15:34;;;;;;;3.47;0.70;;;7.40;99.90;;;;;;5052903;28;20033;-63
2023/03/05 10:18:17;;;;;;;3.88;0.55;;;7.00;99.90;;;;;;5038465;28;20045;-63
2023/03/05 10:20:51;;;;;;;3.67;0.60;;;6.80;99.90;;;;;;5053862;28;20473;-63
2023/03/05 10:23:30;;;;;;;4.00;1.73;;;6.50;99.90;;;;;;5054425;28;20124;-64
2023/03/05 10:26:20;;;;;;;7.00;5.10;;;6.40;99.90;;;;;;5040128;28;20034;-63
2023/03/05 10:29:03;;;;;;;3.88;3.47;;;6.40;99.90;;;;;;5040874;28;20383;-64
2023/03/05 10:31:42;;;;;;;1.73;0.60;;;6.40;99.90;;;;;;5034354;28;20064;-63
2023/03/05 10:34:28;;;;;;;0.85;0.20;;;6.40;99.90;;;;;;5033167;28;20404;-64
2023/03/05 10:37:26;;;;;;;0.85;0.32;;;6.50;99.90;;;;;;5052618;28;20044;-64
2023/03/05 10:40:10;;;;;;;1.52;0.30;;;6.50;99.90;;;;;;5042315;28;20033;-65
2023/03/05 10:43:00;;;;;;;1.50;0.30;;;6.50;99.90;;;;;;5040945;28;20049;-64
2023/03/05 10:45:30;;;;;;;18.98;14.85;;;6.50;99.90;;;;;;5044134;28;20068;-65
2023/03/05 10:48:32;;;;;;;19.23;15.32;;;6.60;99.90;;;;;;5031910;28;20037;-63
2023/03/05 10:51:20;;;;;;;40.08;19.45;;;6.90;99.90;;;;;;5033574;28;20593;-64
2023/03/05 10:53:58;;;;;;;16.23;6.97;;;7.10;99.90;;;;;;5032619;28;20045;-64
2023/03/05 10:56:26;;;;;;;6.80;2.10;;;7.10;99.90;;;;;;5046069;28;20657;-65
2023/03/05 10:58:52;;;;;;;3.42;1.33;;;7.10;99.90;;;;;;5049032;28;20635;-63
2023/03/05 11:01:24;;;;;;;3.50;0.93;;;7.20;99.90;;;;;;5043713;28;20128;-64
2023/03/05 11:04:00;;;;;;;3.15;0.80;;;7.20;99.90;;;;;;5034424;28;20042;-63
2023/03/05 11:06:34;;;;;;;4.55;0.93;;;7.30;99.90;;;;;;5045149;28;20412;-64
2023/03/05 11:09:14;;;;;;;3.70;0.70;;;7.40;99.90;;;;;;5051651;28;20045;-63
2023/03/05 11:11:39;;;;;;;3.08;0.82;;;7.60;99.90;;;;;;5037323;28;20049;-63
2023/03/05 11:14:31;;;;;;;3.03;0.90;;;7.70;99.90;;;;;;5039414;28;20087;-63
2023/03/05 11:16:57;;;;;;;3.95;0.90;;;7.70;99.90;;;;;;5030713;28;20061;-64
2023/03/05 11:19:28;;;;;;;1.88;0.60;;;7.70;99.90;;;;;;5036710;28;20159;-64
2023/03/05 11:22:15;;;;;;;2.30;0.50;;;7.70;99.90;;;;;;5048965;28;20370;-65
2023/03/05 11:24:40;;;;;;;5.53;0.55;;;7.80;99.90;;;;;;5032064;28;20519;-65
2023/03/05 11:27:30;;;;;;;1.58;0.60;;;7.80;99.90;;;;;;5035265;28;20195;-64
2023/03/05 11:29:56;;;;;;;2.20;0.55;;;7.90;99.90;;;;;;5043440;28;20121;-64
2023/03/05 11:32:25;;;;;;;3.70;0.70;;;8.00;99.90;;;;;;5038298;28;20041;-63
2023/03/05 11:34:51;;;;;;;2.42;0.68;;;8.10;99.90;;;;;;5045084;28;20044;-64
2023/03/05 11:37:28;;;;;;;5.38;0.80;;;8.30;99.90;;;;;;5041867;28;20097;-64
2023/03/05 11:40:15;;;;;;;4.82;1.65;;;8.40;99.90;;;;;;5049987;28;20041;-64
2023/03/05 11:42:42;;;;;;;3.63;1.08;;;8.40;99.90;;;;;;5049886;28;20048;-64
2023/03/05 11:45:16;;;;;;;4.68;1.10;;;8.50;99.90;;;;;;5040849;28;20072;-64
2023/03/05 11:47:48;;;;;;;3.92;0.85;;;8.50;99.90;;;;;;5042298;28;20060;-64
2023/03/05 11:50:25;;;;;;;6.80;1.70;;;8.60;99.90;;;;;;5047314;28;20036;-64
2023/03/05 11:53:08;;;;;;;5.85;1.95;;;8.70;99.90;;;;;;5050355;28;20113;-64
2023/03/05 11:55:42;;;;;;;7.78;1.27;;;8.90;99.90;;;;;;5050567;28;20531;-63
2023/03/05 11:58:35;;;;;;;4.22;1.13;;;8.90;99.90;;;;;;5051402;28;20048;-64
2023/03/05 12:01:05;;;;;;;3.13;0.88;;;8.90;99.90;;;;;;5034284;28;20045;-65
2023/03/05 12:03:37;;;;;;;3.45;0.90;;;8.70;99.90;;;;;;5030207;28;20037;-65
2023/03/05 12:06:11;;;;;;;2.75;1.02;;;8.60;99.90;;;;;;5032215;28;20435;-64
2023/03/05 12:08:42;;;;;;;3.55;1.10;;;8.50;99.90;;;;;;5045160;28;20045;-64
2023/03/05 12:11:17;;;;;;;4.13;0.90;;;8.50;99.90;;;;;;5047976;28;20082;-64
2023/03/05 12:13:49;;;;;;;4.50;0.90;;;8.50;99.90;;;;;;5051978;28;20037;-64
2023/03/05 12:16:37;;;;;;;3.60;0.77;;;8.60;99.90;;;;;;5033539;28;20037;-63
2023/03/05 12:19:29;;;;;;;2.88;0.70;;;8.70;99.90;;;;;;5034504;28;20037;-64
2023/03/05 12:21:55;;;;;;;4.95;1.10;;;8.80;99.90;;;;;;5035463;28;20052;-63
2023/03/05 12:24:23;;;;;;;4.95;0.90;;;8.80;99.90;;;;;;5042716;28;20039;-64
2023/03/05 12:26:52;;;;;;;2.85;0.60;;;8.70;99.90;;;;;;5048428;28;20064;-63
2023/03/05 12:29:41;;;;;;;1.05;0.40;;;8.60;99.90;;;;;;5043660;28;20131;-64
2023/03/05 12:32:27;;;;;;;2.60;0.70;;;8.60;99.50;;;;;;5019671;28;20033;-65
2023/03/05 12:35:22;;;;;;;4.55;1.17;;;8.60;99.80;;;;;;5024050;28;20068;-63
2023/03/05 12:37:48;;;;;;;4.53;1.58;;;8.60;99.30;;;;;;5039160;28;20067;-64
2023/03/05 12:40:27;;;;;;;4.55;1.20;;;8.50;99.90;;;;;;5041612;28;20041;-63
2023/03/05 12:42:55;;;;;;;2.55;1.20;;;8.50;99.90;;;;;;5038080;28;20041;-63
2023/03/05 12:45:23;;;;;;;3.13;0.80;;;8.60;99.90;;;;;;5041814;28;20037;-64
2023/03/05 12:47:54;;;;;;;5.47;0.70;;;8.50;99.90;;;;;;5036470;28;20103;-64
2023/03/05 12:50:26;;;;;;;4.05;1.05;;;8.60;99.90;;;;;;5041190;28;20033;-65
2023/03/05 12:53:05;;;;;;;4.75;0.80;;;8.60;99.90;;;;;;5035351;28;20162;-63
2023/03/05 12:55:34;;;;;;;3.88;1.27;;;8.60;99.90;;;;;;5035123;28;20053;-64
2023/03/05 12:58:02;;;;;;;4.47;1.63;;;8.60;99.90;;;;;;5028742;28;20064;-63
2023/03/05 13:00:38;;;;;;;6.63;3.72;;;8.40;99.90;;;;;;5032630;28;20551;-65
2023/03/05 13:03:09;;;;;;;6.32;1.80;;;8.00;99.90;;;;;;5034399;28;20080;-64
2023/03/05 13:05:36;;;;;;;3.72;1.10;;;7.70;99.90;;;;;;5045854;28;20082;-64
2023/03/05 13:08:21;;;;;;;3.95;0.80;;;7.50;99.90;;;;;;5041029;28;20048;-65